createdAt,value
2018-01-11T00:00:06.528Z,807.29
2018-01-11T00:01:06.533Z,807.33
2018-01-11T00:02:06.573Z,807.28
2018-01-11T00:03:06.534Z,807.27
2018-01-11T00:04:06.539Z,807.28
2018-01-11T00:05:06.549Z,807.26
2018-01-11T00:06:06.553Z,807.26
2018-01-11T00:07:06.552Z,807.24
2018-01-11T00:08:06.561Z,807.26
2018-01-11T00:09:06.561Z,807.24
2018-01-11T00:10:06.564Z,807.22
2018-01-11T00:11:06.616Z,807.23
2018-01-11T00:12:06.580Z,807.22
2018-01-11T00:13:06.579Z,807.22
2018-01-11T00:14:06.583Z,807.25
2018-01-11T00:15:06.594Z,807.19
2018-01-11T00:16:06.596Z,807.23
2018-01-11T00:17:06.602Z,807.21
2018-01-11T00:18:06.602Z,807.24
2018-01-11T00:19:06.606Z,807.19
2018-01-11T00:20:06.609Z,807.23
2018-01-11T00:21:06.619Z,807.20
2018-01-11T00:22:06.624Z,807.20
2018-01-11T00:23:06.629Z,807.18
2018-01-11T00:24:06.635Z,807.20
2018-01-11T00:25:06.634Z,807.21
2018-01-11T00:26:06.641Z,807.16
2018-01-11T00:27:06.647Z,807.17
2018-01-11T00:28:06.652Z,807.13
2018-01-11T00:29:06.651Z,807.16
2018-01-11T00:30:06.662Z,807.13
2018-01-11T00:31:06.664Z,807.11
2018-01-11T00:32:06.668Z,807.12
2018-01-11T00:33:06.674Z,807.11
2018-01-11T00:34:06.681Z,807.10
2018-01-11T00:35:06.685Z,807.07
2018-01-11T00:36:06.682Z,807.06
2018-01-11T00:37:06.687Z,807.03
2018-01-11T00:38:06.697Z,807.05
2018-01-11T00:39:06.704Z,807.05
2018-01-11T00:40:06.706Z,807.06
2018-01-11T00:41:06.710Z,807.07
2018-01-11T00:42:06.711Z,807.08
2018-01-11T00:43:06.721Z,807.09
2018-01-11T00:44:06.720Z,807.06
2018-01-11T00:45:06.722Z,807.05
2018-01-11T00:46:06.729Z,807.08
2018-01-11T00:47:06.738Z,807.06
2018-01-11T00:48:06.741Z,807.02
2018-01-11T00:49:06.741Z,807.09
2018-01-11T00:50:06.754Z,807.05
2018-01-11T00:51:06.759Z,807.04
2018-01-11T00:52:06.755Z,807.03
2018-01-11T00:53:06.765Z,807.03
2018-01-11T00:54:06.766Z,807.02
2018-01-11T00:55:06.775Z,807.00
2018-01-11T00:56:06.779Z,807.01
2018-01-11T00:57:06.780Z,807.01
2018-01-11T00:58:06.789Z,807.01
2018-01-11T00:59:06.787Z,806.97
2018-01-11T01:00:06.798Z,807.01
2018-01-11T01:01:06.797Z,806.98
2018-01-11T01:02:06.808Z,806.97
2018-01-11T01:03:06.807Z,807.00
2018-01-11T01:04:06.816Z,807.00
2018-01-11T01:05:06.814Z,807.05
2018-01-11T01:06:06.825Z,807.04
2018-01-11T01:07:06.830Z,807.00
2018-01-11T01:08:06.834Z,807.00
2018-01-11T01:09:06.842Z,807.00
2018-01-11T01:10:06.840Z,807.02
2018-01-11T01:11:06.844Z,807.01
2018-01-11T01:12:06.847Z,807.03
2018-01-11T01:13:06.853Z,807.07
2018-01-11T01:14:06.862Z,807.00
2018-01-11T01:15:06.862Z,807.01
2018-01-11T01:16:06.873Z,807.00
2018-01-11T01:17:06.877Z,807.04
2018-01-11T01:18:06.875Z,807.02
2018-01-11T01:19:06.881Z,807.05
2018-01-11T01:20:06.889Z,807.03
2018-01-11T01:21:06.890Z,807.06
2018-01-11T01:22:06.894Z,807.05
2018-01-11T01:23:06.904Z,807.08
2018-01-11T01:24:06.908Z,807.10
2018-01-11T01:25:06.913Z,807.09
2018-01-11T01:26:06.919Z,807.13
2018-01-11T01:27:06.918Z,807.06
2018-01-11T01:28:06.928Z,807.09
2018-01-11T01:29:06.931Z,807.06
2018-01-11T01:30:06.937Z,807.04
2018-01-11T01:31:06.937Z,807.07
2018-01-11T01:32:06.942Z,807.06
2018-01-11T01:33:06.944Z,807.05
2018-01-11T01:34:06.951Z,807.07
2018-01-11T01:35:06.955Z,807.08
2018-01-11T01:36:06.960Z,807.03
2018-01-11T01:37:06.963Z,807.03
2018-01-11T01:38:06.975Z,807.00
2018-01-11T01:39:06.979Z,807.01
2018-01-11T01:40:06.976Z,807.00
2018-01-11T01:41:06.984Z,807.05
2018-01-11T01:42:06.991Z,807.00
2018-01-11T01:43:06.995Z,807.01
2018-01-11T01:44:06.995Z,807.03
2018-01-11T01:45:07.006Z,807.04
2018-01-11T01:46:07.005Z,807.02
2018-01-11T01:47:07.012Z,806.99
2018-01-11T01:48:07.021Z,807.04
2018-01-11T01:49:07.018Z,807.02
2018-01-11T01:50:07.030Z,807.02
2018-01-11T01:51:07.035Z,807.05
2018-01-11T01:52:07.032Z,807.05
2018-01-11T01:53:07.037Z,807.06
2018-01-11T01:54:07.041Z,807.01
2018-01-11T01:55:07.053Z,807.02
2018-01-11T01:56:07.057Z,806.99
2018-01-11T01:57:07.094Z,807.03
2018-01-11T01:58:07.065Z,807.00
2018-01-11T01:59:07.117Z,807.00
2018-01-11T02:00:07.075Z,807.02
2018-01-11T02:01:07.079Z,807.00
2018-01-11T02:02:07.078Z,806.99
2018-01-11T02:03:07.093Z,806.98
2018-01-11T02:04:07.086Z,806.96
2018-01-11T02:05:07.096Z,806.96
2018-01-11T02:06:07.100Z,806.99
2018-01-11T02:07:07.100Z,806.96
2018-01-11T02:08:07.110Z,806.95
2018-01-11T02:09:07.114Z,807.02
2018-01-11T02:10:07.113Z,806.98
2018-01-11T02:11:07.129Z,806.97
2018-01-11T02:12:07.126Z,806.99
2018-01-11T02:13:07.132Z,807.00
2018-01-11T02:14:07.136Z,806.98
2018-01-11T02:15:07.142Z,806.98
2018-01-11T02:16:07.145Z,806.97
2018-01-11T02:17:07.149Z,806.96
2018-01-11T02:18:07.153Z,806.91
2018-01-11T02:19:07.157Z,806.93
2018-01-11T02:20:07.160Z,806.95
2018-01-11T02:21:07.166Z,806.94
2018-01-11T02:22:07.171Z,806.97
2018-01-11T02:23:07.176Z,806.96
2018-01-11T02:24:07.178Z,806.98
2018-01-11T02:25:07.183Z,806.95
2018-01-11T02:26:07.188Z,806.94
2018-01-11T02:27:07.192Z,806.94
2018-01-11T02:28:07.195Z,806.91
2018-01-11T02:29:07.199Z,806.92
2018-01-11T02:30:07.205Z,806.93
2018-01-11T02:31:07.212Z,806.94
2018-01-11T02:32:07.206Z,806.95
2018-01-11T02:33:07.213Z,806.95
2018-01-11T02:34:07.220Z,806.94
2018-01-11T02:35:07.225Z,806.98
2018-01-11T02:36:07.229Z,806.95
2018-01-11T02:37:07.230Z,806.96
2018-01-11T02:38:07.238Z,806.93
2018-01-11T02:39:07.242Z,806.94
2018-01-11T02:40:07.247Z,806.94
2018-01-11T02:41:07.253Z,806.96
2018-01-11T02:42:07.256Z,806.96
2018-01-11T02:43:07.254Z,806.94
2018-01-11T02:44:07.260Z,806.96
2018-01-11T02:45:07.260Z,806.96
2018-01-11T02:46:07.272Z,806.97
2018-01-11T02:47:07.271Z,806.92
2018-01-11T02:48:07.279Z,806.96
2018-01-11T02:49:07.283Z,806.96
2018-01-11T02:50:07.289Z,806.99
2018-01-11T02:51:07.293Z,806.97
2018-01-11T02:52:07.297Z,807.00
2018-01-11T02:53:07.302Z,806.96
2018-01-11T02:54:07.298Z,806.98
2018-01-11T02:55:07.318Z,806.98
2018-01-11T02:56:07.306Z,806.98
2018-01-11T02:57:07.376Z,806.97
2018-01-11T02:58:07.322Z,806.96
2018-01-11T02:59:07.323Z,806.96
2018-01-11T03:00:07.323Z,806.96
2018-01-11T03:01:07.332Z,807.00
2018-01-11T03:02:07.330Z,806.97
2018-01-11T03:03:07.336Z,806.99
2018-01-11T03:04:07.343Z,806.97
2018-01-11T03:05:07.342Z,806.95
2018-01-11T03:06:07.357Z,806.95
2018-01-11T03:07:07.356Z,807.01
2018-01-11T03:08:07.353Z,806.98
2018-01-11T03:09:07.357Z,806.95
2018-01-11T03:10:07.361Z,806.97
2018-01-11T03:11:07.366Z,806.95
2018-01-11T03:12:07.380Z,806.91
2018-01-11T03:13:07.380Z,806.95
2018-01-11T03:14:07.385Z,806.93
2018-01-11T03:15:07.388Z,806.97
2018-01-11T03:16:07.389Z,806.95
2018-01-11T03:17:07.393Z,806.94
2018-01-11T03:18:07.392Z,806.96
2018-01-11T03:19:07.401Z,806.97
2018-01-11T03:20:07.406Z,806.94
2018-01-11T03:21:07.405Z,806.90
2018-01-11T03:22:07.415Z,806.91
2018-01-11T03:23:07.416Z,806.94
2018-01-11T03:24:07.421Z,806.88
2018-01-11T03:25:07.419Z,806.92
2018-01-11T03:26:07.423Z,806.90
2018-01-11T03:27:07.433Z,806.91
2018-01-11T03:28:07.432Z,806.90
2018-01-11T03:29:07.436Z,806.88
2018-01-11T03:30:07.443Z,806.86
2018-01-11T03:31:07.446Z,806.83
2018-01-11T03:32:07.447Z,806.85
2018-01-11T03:33:07.458Z,806.83
2018-01-11T03:34:07.462Z,806.82
2018-01-11T03:35:07.459Z,806.83
2018-01-11T03:36:07.472Z,806.83
2018-01-11T03:37:07.467Z,806.81
2018-01-11T03:38:07.479Z,806.84
2018-01-11T03:39:07.480Z,806.85
2018-01-11T03:40:07.486Z,806.84
2018-01-11T03:41:07.484Z,806.84
2018-01-11T03:42:07.495Z,806.86
2018-01-11T03:43:07.496Z,806.82
2018-01-11T03:44:07.497Z,806.81
2018-01-11T03:45:07.499Z,806.79
2018-01-11T03:46:07.505Z,806.82
2018-01-11T03:47:07.516Z,806.83
2018-01-11T03:48:07.517Z,806.79
2018-01-11T03:49:07.521Z,806.81
2018-01-11T03:50:07.520Z,806.75
2018-01-11T03:51:07.530Z,806.80
2018-01-11T03:52:07.528Z,806.82
2018-01-11T03:53:07.534Z,806.83
2018-01-11T03:54:07.543Z,806.80
2018-01-11T03:55:07.548Z,806.81
2018-01-11T03:56:07.549Z,806.82
2018-01-11T03:57:07.554Z,806.77
2018-01-11T03:58:07.558Z,806.80
2018-01-11T03:59:07.562Z,806.80
2018-01-11T04:00:07.561Z,806.81
2018-01-11T04:01:07.572Z,806.76
2018-01-11T04:02:07.576Z,806.80
2018-01-11T04:03:07.574Z,806.78
2018-01-11T04:04:07.578Z,806.73
2018-01-11T04:05:07.589Z,806.74
2018-01-11T04:06:07.588Z,806.75
2018-01-11T04:07:07.597Z,806.73
2018-01-11T04:08:07.594Z,806.75
2018-01-11T04:09:07.600Z,806.73
2018-01-11T04:10:07.606Z,806.76
2018-01-11T04:11:07.614Z,806.73
2018-01-11T04:12:07.613Z,806.74
2018-01-11T04:13:07.619Z,806.76
2018-01-11T04:14:07.625Z,806.71
2018-01-11T04:15:07.626Z,806.73
2018-01-11T04:16:07.635Z,806.71
2018-01-11T04:17:07.636Z,806.72
2018-01-11T04:18:07.638Z,806.73
2018-01-11T04:19:07.642Z,806.71
2018-01-11T04:20:07.652Z,806.75
2018-01-11T04:21:07.651Z,806.77
2018-01-11T04:22:07.655Z,806.76
2018-01-11T04:23:07.660Z,806.76
2018-01-11T04:24:07.664Z,806.79
2018-01-11T04:25:07.667Z,806.77
2018-01-11T04:26:07.673Z,806.84
2018-01-11T04:27:07.682Z,806.81
2018-01-11T04:28:07.680Z,806.78
2018-01-11T04:29:07.686Z,806.79
2018-01-11T04:30:07.690Z,806.78
2018-01-11T04:31:07.696Z,806.81
2018-01-11T04:32:07.704Z,806.83
2018-01-11T04:33:07.707Z,806.79
2018-01-11T04:34:07.713Z,806.84
2018-01-11T04:35:07.716Z,806.76
2018-01-11T04:36:07.721Z,806.78
2018-01-11T04:37:07.719Z,806.79
2018-01-11T04:38:07.729Z,806.81
2018-01-11T04:39:07.728Z,806.78
2018-01-11T04:40:07.737Z,806.78
2018-01-11T04:41:07.735Z,806.76
2018-01-11T04:42:07.746Z,806.75
2018-01-11T04:43:07.745Z,806.70
2018-01-11T04:44:07.755Z,806.73
2018-01-11T04:45:07.757Z,806.73
2018-01-11T04:46:07.763Z,806.73
2018-01-11T04:47:07.761Z,806.72
2018-01-11T04:48:07.765Z,806.71
2018-01-11T04:49:07.775Z,806.74
2018-01-11T04:50:07.775Z,806.75
2018-01-11T04:51:07.784Z,806.72
2018-01-11T04:52:07.787Z,806.75
2018-01-11T04:53:07.786Z,806.69
2018-01-11T04:54:07.798Z,806.70
2018-01-11T04:55:07.797Z,806.71
2018-01-11T04:56:07.805Z,806.68
2018-01-11T04:57:07.810Z,806.71
2018-01-11T04:58:07.813Z,806.70
2018-01-11T04:59:07.818Z,806.70
2018-01-11T05:00:07.822Z,806.71
2018-01-11T05:01:07.827Z,806.70
2018-01-11T05:02:07.826Z,806.67
2018-01-11T05:03:07.830Z,806.68
2018-01-11T05:04:07.833Z,806.70
2018-01-11T05:05:07.845Z,806.69
2018-01-11T05:06:07.851Z,806.67
2018-01-11T05:07:07.854Z,806.66
2018-01-11T05:08:07.858Z,806.69
2018-01-11T05:09:07.862Z,806.70
2018-01-11T05:10:07.862Z,806.71
2018-01-11T05:11:07.873Z,806.71
2018-01-11T05:12:07.875Z,806.72
2018-01-11T05:13:07.877Z,806.69
2018-01-11T05:14:07.879Z,806.67
2018-01-11T05:15:07.889Z,806.66
2018-01-11T05:16:07.888Z,806.70
2018-01-11T05:17:07.893Z,806.70
2018-01-11T05:18:07.902Z,806.69
2018-01-11T05:19:07.908Z,806.65
2018-01-11T05:20:07.911Z,806.64
2018-01-11T05:21:07.915Z,806.67
2018-01-11T05:22:07.919Z,806.69
2018-01-11T05:23:07.923Z,806.70
2018-01-11T05:24:07.927Z,806.67
2018-01-11T05:25:07.932Z,806.69
2018-01-11T05:26:07.931Z,806.67
2018-01-11T05:27:07.941Z,806.68
2018-01-11T05:28:07.938Z,806.66
2018-01-11T05:29:07.949Z,806.66
2018-01-11T05:30:07.949Z,806.66
2018-01-11T05:31:07.953Z,806.67
2018-01-11T05:32:07.961Z,806.68
2018-01-11T05:33:07.966Z,806.68
2018-01-11T05:34:07.966Z,806.69
2018-01-11T05:35:07.976Z,806.67
2018-01-11T05:36:07.972Z,806.72
2018-01-11T05:37:07.983Z,806.73
2018-01-11T05:38:07.983Z,806.71
2018-01-11T05:39:07.986Z,806.70
2018-01-11T05:40:07.991Z,806.74
2018-01-11T05:41:07.995Z,806.73
2018-01-11T05:42:08.004Z,806.72
2018-01-11T05:43:08.004Z,806.76
2018-01-11T05:44:08.010Z,806.75
2018-01-11T05:45:08.011Z,806.78
2018-01-11T05:46:08.021Z,806.78
2018-01-11T05:47:08.024Z,806.79
2018-01-11T05:48:08.031Z,806.78
2018-01-11T05:49:08.028Z,806.80
2018-01-11T05:50:08.036Z,806.76
2018-01-11T05:51:08.037Z,806.78
2018-01-11T05:52:08.047Z,806.79
2018-01-11T05:53:08.044Z,806.78
2018-01-11T05:54:08.047Z,806.79
2018-01-11T05:55:08.051Z,806.81
2018-01-11T05:56:08.056Z,806.83
2018-01-11T05:57:08.067Z,806.83
2018-01-11T05:58:08.064Z,806.84
2018-01-11T05:59:08.070Z,806.84
2018-01-11T06:00:08.070Z,806.86
2018-01-11T06:01:08.075Z,806.86
2018-01-11T06:02:08.077Z,806.89
2018-01-11T06:03:08.082Z,806.89
2018-01-11T06:04:08.084Z,806.88
2018-01-11T06:05:08.094Z,806.87
2018-01-11T06:06:08.098Z,806.93
2018-01-11T06:07:08.102Z,806.93
2018-01-11T06:08:08.105Z,806.91
2018-01-11T06:09:08.108Z,806.95
2018-01-11T06:10:08.109Z,806.92
2018-01-11T06:11:08.119Z,806.91
2018-01-11T06:12:08.116Z,806.94
2018-01-11T06:13:08.124Z,806.95
2018-01-11T06:14:08.123Z,806.96
2018-01-11T06:15:08.127Z,806.94
2018-01-11T06:16:08.132Z,806.96
2018-01-11T06:17:08.138Z,806.94
2018-01-11T06:18:08.145Z,806.96
2018-01-11T06:19:08.142Z,806.95
2018-01-11T06:20:08.153Z,806.95
2018-01-11T06:21:08.148Z,806.94
2018-01-11T06:22:08.160Z,806.97
2018-01-11T06:23:08.164Z,806.97
2018-01-11T06:24:08.165Z,807.04
2018-01-11T06:25:08.164Z,807.07
2018-01-11T06:26:08.168Z,807.04
2018-01-11T06:27:08.174Z,807.03
2018-01-11T06:28:08.175Z,807.07
2018-01-11T06:29:08.184Z,807.10
2018-01-11T06:30:08.184Z,807.09
2018-01-11T06:31:08.193Z,807.13
2018-01-11T06:32:08.192Z,807.11
2018-01-11T06:33:08.192Z,807.11
2018-01-11T06:34:08.198Z,807.14
2018-01-11T06:35:08.203Z,807.15
2018-01-11T06:36:08.204Z,807.16
2018-01-11T06:37:08.209Z,807.16
2018-01-11T06:38:08.213Z,807.19
2018-01-11T06:39:08.221Z,807.17
2018-01-11T06:40:08.222Z,807.14
2018-01-11T06:41:08.228Z,807.19
2018-01-11T06:42:08.232Z,807.18
2018-01-11T06:43:08.228Z,807.17
2018-01-11T06:44:08.233Z,807.19
2018-01-11T06:45:08.241Z,807.17
2018-01-11T06:46:08.245Z,807.18
2018-01-11T06:47:08.246Z,807.18
2018-01-11T06:48:08.252Z,807.20
2018-01-11T06:49:08.255Z,807.18
2018-01-11T06:50:08.263Z,807.21
2018-01-11T06:51:08.262Z,807.19
2018-01-11T06:52:08.266Z,807.18
2018-01-11T06:53:08.268Z,807.17
2018-01-11T06:54:08.275Z,807.23
2018-01-11T06:55:08.274Z,807.19
2018-01-11T06:56:08.275Z,807.19
2018-01-11T06:57:08.281Z,807.24
2018-01-11T06:58:08.286Z,807.25
2018-01-11T06:59:08.292Z,807.24
2018-01-11T07:00:08.288Z,807.23
2018-01-11T07:01:08.297Z,807.18
2018-01-11T07:02:08.298Z,807.26
2018-01-11T07:03:08.300Z,807.23
2018-01-11T07:04:08.302Z,807.25
2018-01-11T07:05:08.309Z,807.24
2018-01-11T07:06:08.316Z,807.24
2018-01-11T07:07:08.318Z,807.23
2018-01-11T07:08:08.322Z,807.23
2018-01-11T07:09:08.322Z,807.21
2018-01-11T07:10:08.330Z,807.24
2018-01-11T07:11:08.329Z,807.25
2018-01-11T07:12:08.332Z,807.22
2018-01-11T07:13:08.340Z,807.27
2018-01-11T07:14:08.345Z,807.30
2018-01-11T07:15:08.346Z,807.32
2018-01-11T07:16:08.347Z,807.32
2018-01-11T07:17:08.359Z,807.31
2018-01-11T07:18:08.355Z,807.37
2018-01-11T07:19:08.364Z,807.32
2018-01-11T07:20:08.362Z,807.33
2018-01-11T07:21:08.373Z,807.38
2018-01-11T07:22:08.376Z,807.39
2018-01-11T07:23:08.377Z,807.39
2018-01-11T07:24:08.378Z,807.42
2018-01-11T07:25:08.386Z,807.39
2018-01-11T07:26:08.390Z,807.42
2018-01-11T07:27:08.392Z,807.42
2018-01-11T07:28:08.398Z,807.42
2018-01-11T07:29:08.403Z,807.43
2018-01-11T07:30:08.403Z,807.47
2018-01-11T07:31:08.405Z,807.48
2018-01-11T07:32:08.413Z,807.46
2018-01-11T07:33:08.412Z,807.47
2018-01-11T07:34:08.416Z,807.49
2018-01-11T07:35:08.426Z,807.47
2018-01-11T07:36:08.430Z,807.53
2018-01-11T07:37:08.432Z,807.47
2018-01-11T07:38:08.434Z,807.52
2018-01-11T07:39:08.437Z,807.47
2018-01-11T07:40:08.440Z,807.49
2018-01-11T07:41:08.445Z,807.51
2018-01-11T07:42:08.454Z,807.55
2018-01-11T07:43:08.452Z,807.59
2018-01-11T07:44:08.456Z,807.58
2018-01-11T07:45:08.464Z,807.57
2018-01-11T07:46:08.464Z,807.56
2018-01-11T07:47:08.474Z,807.60
2018-01-11T07:48:08.478Z,807.60
2018-01-11T07:49:08.480Z,807.59
2018-01-11T07:50:08.486Z,807.60
2018-01-11T07:51:08.489Z,807.60
2018-01-11T07:52:08.487Z,807.60
2018-01-11T07:53:08.500Z,807.61
2018-01-11T07:54:08.500Z,807.60
2018-01-11T07:55:08.507Z,807.64
2018-01-11T07:56:08.508Z,807.64
2018-01-11T07:57:08.523Z,807.67
2018-01-11T07:58:08.516Z,807.68
2018-01-11T07:59:08.522Z,807.65
2018-01-11T08:00:08.526Z,807.67
2018-01-11T08:01:08.524Z,807.65
2018-01-11T08:02:08.533Z,807.69
2018-01-11T08:03:08.542Z,807.67
2018-01-11T08:04:08.544Z,807.66
2018-01-11T08:05:08.539Z,807.68
2018-01-11T08:06:08.553Z,807.67
2018-01-11T08:07:08.555Z,807.66
2018-01-11T08:08:08.558Z,807.69
2018-01-11T08:09:08.565Z,807.68
2018-01-11T08:10:08.568Z,807.63
2018-01-11T08:11:08.571Z,807.68
2018-01-11T08:12:08.573Z,807.64
2018-01-11T08:13:08.573Z,807.69
2018-01-11T08:14:08.577Z,807.66
2018-01-11T08:15:08.581Z,807.68
2018-01-11T08:16:08.586Z,807.70
2018-01-11T08:17:08.597Z,807.68
2018-01-11T08:18:08.600Z,807.65
2018-01-11T08:19:08.605Z,807.66
2018-01-11T08:20:08.611Z,807.71
2018-01-11T08:21:08.615Z,807.72
2018-01-11T08:22:08.617Z,807.73
2018-01-11T08:23:08.622Z,807.73
2018-01-11T08:24:08.622Z,807.72
2018-01-11T08:25:08.624Z,807.77
2018-01-11T08:26:08.627Z,807.79
2018-01-11T08:27:08.634Z,807.79
2018-01-11T08:28:08.637Z,807.81
2018-01-11T08:29:08.650Z,807.85
2018-01-11T08:30:08.651Z,807.85
2018-01-11T08:31:08.651Z,807.89
2018-01-11T08:32:08.656Z,807.84
2018-01-11T08:33:08.662Z,807.86
2018-01-11T08:34:08.668Z,807.92
2018-01-11T08:35:08.669Z,807.87
2018-01-11T08:36:08.674Z,807.91
2018-01-11T08:37:08.682Z,807.87
2018-01-11T08:38:08.686Z,807.89
2018-01-11T08:39:08.687Z,807.90
2018-01-11T08:40:08.688Z,807.88
2018-01-11T08:41:08.699Z,807.91
2018-01-11T08:42:08.706Z,807.90
2018-01-11T08:43:08.717Z,807.90
2018-01-11T08:44:08.707Z,807.96
2018-01-11T08:45:08.719Z,807.95
2018-01-11T08:46:08.718Z,807.97
2018-01-11T08:47:08.727Z,807.94
2018-01-11T08:48:08.726Z,807.96
2018-01-11T08:49:08.736Z,807.99
2018-01-11T08:50:08.739Z,808.03
2018-01-11T08:51:08.741Z,807.99
2018-01-11T08:52:08.743Z,808.00
2018-01-11T08:53:08.748Z,808.00
2018-01-11T08:54:08.760Z,808.01
2018-01-11T08:55:08.765Z,808.01
2018-01-11T08:56:08.769Z,808.03
2018-01-11T08:57:08.771Z,808.00
2018-01-11T08:58:08.777Z,808.02
2018-01-11T08:59:08.777Z,808.03
2018-01-11T09:00:08.787Z,808.04
2018-01-11T09:01:08.796Z,808.07
2018-01-11T09:02:08.796Z,808.09
2018-01-11T09:03:08.824Z,808.07
2018-01-11T09:04:08.806Z,808.08
2018-01-11T09:05:08.811Z,808.10
2018-01-11T09:06:08.819Z,808.10
2018-01-11T09:07:08.821Z,808.08
2018-01-11T09:08:08.825Z,808.17
2018-01-11T09:09:08.830Z,808.11
2018-01-11T09:10:08.831Z,808.12
2018-01-11T09:11:08.843Z,808.14
2018-01-11T09:12:08.840Z,808.13
2018-01-11T09:13:08.850Z,808.13
2018-01-11T09:14:08.859Z,808.16
2018-01-11T09:15:08.864Z,808.13
2018-01-11T09:16:08.863Z,808.13
2018-01-11T09:17:08.865Z,808.15
2018-01-11T09:18:08.869Z,808.13
2018-01-11T09:19:08.884Z,808.14
2018-01-11T09:20:08.885Z,808.15
2018-01-11T09:21:08.886Z,808.19
2018-01-11T09:22:08.890Z,808.14
2018-01-11T09:23:08.896Z,808.17
2018-01-11T09:24:08.899Z,808.17
2018-01-11T09:25:08.905Z,808.17
2018-01-11T09:26:08.909Z,808.14
2018-01-11T09:27:08.915Z,808.17
2018-01-11T09:28:08.921Z,808.14
2018-01-11T09:29:08.936Z,808.18
2018-01-11T09:30:08.937Z,808.20
2018-01-11T09:31:08.939Z,808.17
2018-01-11T09:32:08.942Z,808.16
2018-01-11T09:33:08.949Z,808.24
2018-01-11T09:34:08.952Z,808.21
2018-01-11T09:35:08.963Z,808.19
2018-01-11T09:36:08.969Z,808.15
2018-01-11T09:37:08.976Z,808.20
2018-01-11T09:38:08.974Z,808.20
2018-01-11T09:39:08.984Z,808.20
2018-01-11T09:40:08.985Z,808.21
2018-01-11T09:41:08.997Z,808.20
2018-01-11T09:42:08.997Z,808.20
2018-01-11T09:43:09.007Z,808.21
2018-01-11T09:44:09.006Z,808.23
2018-01-11T09:45:09.058Z,808.21
2018-01-11T09:46:09.020Z,808.23
2018-01-11T09:47:09.028Z,808.25
2018-01-11T09:48:09.028Z,808.24
2018-01-11T09:49:09.042Z,808.29
2018-01-11T09:50:09.048Z,808.32
2018-01-11T09:51:09.054Z,808.31
2018-01-11T09:52:09.059Z,808.30
2018-01-11T09:53:09.062Z,808.33
2018-01-11T09:54:09.069Z,808.34
2018-01-11T09:55:09.075Z,808.34
2018-01-11T09:56:09.075Z,808.35
2018-01-11T09:57:09.092Z,808.34
2018-01-11T09:58:09.087Z,808.33
2018-01-11T09:59:09.091Z,808.35
2018-01-11T10:00:09.104Z,808.33
2018-01-11T10:01:09.111Z,808.36
2018-01-11T10:02:09.112Z,808.32
2018-01-11T10:03:09.117Z,808.37
2018-01-11T10:04:09.130Z,808.39
2018-01-11T10:05:09.130Z,808.39
2018-01-11T10:06:09.144Z,808.44
2018-01-11T10:07:09.143Z,808.41
2018-01-11T10:08:09.149Z,808.38
2018-01-11T10:09:09.154Z,808.36
2018-01-11T10:10:09.163Z,808.39
2018-01-11T10:11:09.169Z,808.36
2018-01-11T10:12:09.173Z,808.37
2018-01-11T10:13:09.181Z,808.39
2018-01-11T10:14:09.189Z,808.34
2018-01-11T10:15:09.200Z,808.36
2018-01-11T10:16:09.206Z,808.32
2018-01-11T10:17:09.211Z,808.36
2018-01-11T10:18:09.213Z,808.36
2018-01-11T10:19:09.227Z,808.35
2018-01-11T10:20:09.226Z,808.35
2018-01-11T10:21:09.232Z,808.36
2018-01-11T10:22:09.247Z,808.35
2018-01-11T10:23:09.252Z,808.35
2018-01-11T10:24:09.257Z,808.35
2018-01-11T10:25:09.266Z,808.40
2018-01-11T10:26:09.271Z,808.38
2018-01-11T10:27:09.278Z,808.38
2018-01-11T10:28:09.285Z,808.36
2018-01-11T10:29:09.292Z,808.39
2018-01-11T10:30:09.298Z,808.36
2018-01-11T10:31:09.300Z,808.33
2018-01-11T10:32:09.306Z,808.29
2018-01-11T10:33:09.319Z,808.30
2018-01-11T10:34:09.322Z,808.27
2018-01-11T10:35:09.326Z,808.33
2018-01-11T10:36:09.334Z,808.35
2018-01-11T10:37:09.346Z,808.34
2018-01-11T10:38:09.352Z,808.38
2018-01-11T10:39:09.354Z,808.40
2018-01-11T10:40:09.366Z,808.38
2018-01-11T10:41:09.374Z,808.35
2018-01-11T10:42:09.375Z,808.37
2018-01-11T10:43:09.381Z,808.35
2018-01-11T10:44:09.398Z,808.36
2018-01-11T10:45:09.401Z,808.35
2018-01-11T10:46:09.406Z,808.40
2018-01-11T10:47:09.412Z,808.39
2018-01-11T10:48:09.413Z,808.40
2018-01-11T10:49:09.427Z,808.35
2018-01-11T10:50:09.434Z,808.38
2018-01-11T10:51:09.440Z,808.38
2018-01-11T10:52:09.442Z,808.36
2018-01-11T10:53:09.446Z,808.38
2018-01-11T10:54:09.459Z,808.41
2018-01-11T10:55:09.467Z,808.36
2018-01-11T10:56:09.473Z,808.40
2018-01-11T10:57:09.482Z,808.34
2018-01-11T10:58:09.489Z,808.38
2018-01-11T10:59:09.495Z,808.38
2018-01-11T11:00:09.497Z,808.35
2018-01-11T11:01:09.514Z,808.37
2018-01-11T11:02:09.510Z,808.38
2018-01-11T11:03:09.522Z,808.39
2018-01-11T11:04:09.531Z,808.36
2018-01-11T11:05:09.535Z,808.36
2018-01-11T11:06:09.550Z,808.36
2018-01-11T11:07:09.552Z,808.35
2018-01-11T11:08:09.553Z,808.38
2018-01-11T11:09:09.560Z,808.40
2018-01-11T11:10:09.574Z,808.36
2018-01-11T11:11:09.575Z,808.39
2018-01-11T11:12:09.589Z,808.36
2018-01-11T11:13:09.596Z,808.37
2018-01-11T11:14:09.604Z,808.38
2018-01-11T11:15:09.616Z,808.38
2018-01-11T11:16:09.618Z,808.35
2018-01-11T11:17:09.618Z,808.35
2018-01-11T11:18:09.626Z,808.31
2018-01-11T11:19:09.639Z,808.28
2018-01-11T11:20:09.644Z,808.32
2018-01-11T11:21:09.645Z,808.31
2018-01-11T11:22:09.654Z,808.35
2018-01-11T11:23:09.662Z,808.30
2018-01-11T11:24:09.667Z,808.31
2018-01-11T11:25:09.676Z,808.33
2018-01-11T11:26:09.690Z,808.27
2018-01-11T11:27:09.697Z,808.28
2018-01-11T11:28:09.703Z,808.29
2018-01-11T11:29:09.714Z,808.28
2018-01-11T11:30:09.715Z,808.27
2018-01-11T11:31:09.723Z,808.28
2018-01-11T11:32:09.734Z,808.25
2018-01-11T11:33:09.743Z,808.31
2018-01-11T11:34:09.746Z,808.29
2018-01-11T11:35:09.759Z,808.30
2018-01-11T11:36:09.769Z,808.23
2018-01-11T11:37:09.767Z,808.25
2018-01-11T11:38:09.780Z,808.25
2018-01-11T11:39:09.786Z,808.31
2018-01-11T11:40:09.795Z,808.27
2018-01-11T11:41:09.798Z,808.26
2018-01-11T11:42:09.817Z,808.31
2018-01-11T11:43:09.818Z,808.25
2018-01-11T11:44:09.829Z,808.30
2018-01-11T11:45:09.835Z,808.30
2018-01-11T11:46:09.845Z,808.28
2018-01-11T11:47:09.853Z,808.24
2018-01-11T11:48:09.854Z,808.27
2018-01-11T11:49:09.867Z,808.28
2018-01-11T11:50:09.869Z,808.28
2018-01-11T11:51:09.886Z,808.30
2018-01-11T11:52:09.894Z,808.33
2018-01-11T11:53:09.897Z,808.34
2018-01-11T11:54:09.906Z,808.32
2018-01-11T11:55:09.921Z,808.31
2018-01-11T11:56:09.929Z,808.31
2018-01-11T11:57:09.933Z,808.33
2018-01-11T11:58:09.944Z,808.34
2018-01-11T11:59:09.951Z,808.36
2018-01-11T12:00:09.961Z,808.31
2018-01-11T12:01:09.978Z,808.30
2018-01-11T12:02:09.986Z,808.32
2018-01-11T12:03:09.995Z,808.33
2018-01-11T12:04:10.000Z,808.34
2018-01-11T12:05:10.014Z,808.34
2018-01-11T12:06:10.023Z,808.35
2018-01-11T12:07:10.031Z,808.34
2018-01-11T12:08:10.042Z,808.35
2018-01-11T12:09:10.057Z,808.33
2018-01-11T12:10:10.065Z,808.32
2018-01-11T12:11:10.078Z,808.28
2018-01-11T12:12:10.095Z,808.32
2018-01-11T12:13:10.100Z,808.29
2018-01-11T12:14:10.112Z,808.28
2018-01-11T12:15:10.118Z,808.32
2018-01-11T12:16:10.136Z,808.31
2018-01-11T12:17:10.139Z,808.30
2018-01-11T12:18:10.150Z,808.32
2018-01-11T12:19:10.167Z,808.32
2018-01-11T12:20:10.178Z,808.29
2018-01-11T12:21:10.191Z,808.28
2018-01-11T12:22:10.204Z,808.30
2018-01-11T12:23:10.210Z,808.31
2018-01-11T12:24:10.222Z,808.29
2018-01-11T12:25:10.230Z,808.31
2018-01-11T12:26:10.243Z,808.30
2018-01-11T12:27:10.248Z,808.31
2018-01-11T12:28:10.257Z,808.30